createdAt,value
2019-05-03T00:00:24.204Z,89.07
2019-05-03T00:01:24.210Z,88.45
2019-05-03T00:02:24.182Z,87.63
2019-05-03T00:03:24.224Z,88.04
2019-05-03T00:04:24.173Z,88.45
2019-05-03T00:05:24.163Z,88.56
2019-05-03T00:06:24.171Z,88.66
2019-05-03T00:07:24.148Z,87.84
2019-05-03T00:08:24.118Z,88.96
2019-05-03T00:09:24.108Z,88.92
2019-05-03T00:10:24.102Z,88.86
2019-05-03T00:11:24.107Z,89.48
2019-05-03T00:12:24.082Z,89.78
2019-05-03T00:13:24.075Z,89.23
2019-05-03T00:14:24.052Z,89.37
2019-05-03T00:15:24.047Z,89.58
2019-05-03T00:16:24.040Z,90.30
2019-05-03T00:17:24.046Z,88.24
2019-05-03T00:18:24.022Z,89.17
2019-05-03T00:19:24.007Z,89.37
2019-05-03T00:20:23.990Z,89.69
2019-05-03T00:21:23.990Z,88.96
2019-05-03T00:22:23.997Z,89.07
2019-05-03T00:23:23.958Z,89.27
2019-05-03T00:24:23.949Z,87.94
2019-05-03T00:25:23.939Z,87.79
2019-05-03T00:26:23.934Z,88.62
2019-05-03T00:27:23.946Z,88.51
2019-05-03T00:28:23.908Z,88.24
2019-05-03T00:29:23.893Z,88.56
2019-05-03T00:30:23.887Z,88.41
2019-05-03T00:31:23.872Z,88.62
2019-05-03T00:32:23.889Z,88.51
2019-05-03T00:33:23.859Z,88.56
2019-05-03T00:34:23.866Z,89.23
2019-05-03T00:35:23.847Z,89.64
2019-05-03T00:36:23.819Z,89.78
2019-05-03T00:37:23.829Z,88.96
2019-05-03T00:38:23.842Z,89.17
2019-05-03T00:39:23.811Z,89.17
2019-05-03T00:40:23.785Z,88.45
2019-05-03T00:41:23.788Z,87.94
2019-05-03T00:42:23.777Z,87.49
2019-05-03T00:43:23.747Z,89.13
2019-05-03T00:44:23.733Z,89.75
2019-05-03T00:45:23.734Z,89.58
2019-05-03T00:46:23.712Z,89.37
2019-05-03T00:47:23.723Z,89.48
2019-05-03T00:48:23.692Z,88.76
2019-05-03T00:49:23.682Z,89.54
2019-05-03T00:50:23.679Z,88.56
2019-05-03T00:51:23.664Z,88.72
2019-05-03T00:52:23.665Z,89.13
2019-05-03T00:53:23.638Z,89.37
2019-05-03T00:54:23.627Z,88.45
2019-05-03T00:55:23.618Z,89.17
2019-05-03T00:56:23.609Z,88.86
2019-05-03T00:57:23.627Z,89.54
2019-05-03T00:58:23.586Z,89.75
2019-05-03T00:59:23.584Z,89.54
2019-05-03T01:00:23.563Z,90.09
2019-05-03T01:01:23.552Z,90.16
2019-05-03T01:02:26.218Z,90.40
2019-05-03T01:03:23.537Z,89.84
2019-05-03T01:04:23.544Z,90.61
2019-05-03T01:05:23.516Z,89.75
2019-05-03T01:06:23.503Z,89.64
2019-05-03T01:07:23.490Z,88.35
2019-05-03T01:08:23.500Z,89.64
2019-05-03T01:09:23.489Z,89.64
2019-05-03T01:10:23.462Z,89.95
2019-05-03T01:11:23.448Z,89.43
2019-05-03T01:12:23.439Z,89.54
2019-05-03T01:13:23.471Z,89.27
2019-05-03T01:14:23.416Z,89.75
2019-05-03T01:15:23.409Z,90.56
2019-05-03T01:16:23.400Z,89.37
2019-05-03T01:17:23.392Z,90.20
2019-05-03T01:18:23.535Z,89.78
2019-05-03T01:19:23.377Z,90.36
2019-05-03T01:20:23.355Z,89.54
2019-05-03T01:21:23.341Z,89.95
2019-05-03T01:22:23.332Z,90.36
2019-05-03T01:23:23.368Z,90.26
2019-05-03T01:24:23.331Z,90.16
2019-05-03T01:25:32.230Z,90.61
2019-05-03T01:26:24.288Z,90.36
2019-05-03T01:27:23.286Z,90.30
2019-05-03T01:28:23.267Z,90.36
2019-05-03T01:29:23.280Z,90.20
2019-05-03T01:30:23.256Z,90.26
2019-05-03T01:31:23.236Z,90.05
2019-05-03T01:32:23.227Z,90.26
2019-05-03T01:33:23.214Z,90.91
2019-05-03T01:34:23.233Z,90.87
2019-05-03T01:35:23.198Z,89.37
2019-05-03T01:36:23.182Z,90.05
2019-05-03T01:37:23.170Z,90.26
2019-05-03T01:38:23.165Z,90.30
2019-05-03T01:39:23.175Z,89.75
2019-05-03T01:40:23.144Z,90.26
2019-05-03T01:41:23.131Z,89.69
2019-05-03T01:42:23.131Z,90.09
2019-05-03T01:43:23.166Z,90.16
2019-05-03T01:44:23.125Z,90.26
2019-05-03T01:45:23.110Z,90.16
2019-05-03T01:46:23.157Z,89.75
2019-05-03T01:47:23.065Z,90.26
2019-05-03T01:48:23.058Z,90.09
2019-05-03T01:49:23.067Z,89.64
2019-05-03T01:50:23.055Z,90.50
2019-05-03T01:51:23.029Z,90.16
2019-05-03T01:52:23.027Z,90.16
2019-05-03T01:53:23.011Z,90.26
2019-05-03T01:54:23.015Z,90.50
2019-05-03T01:55:22.986Z,89.69
2019-05-03T01:56:22.971Z,90.30
2019-05-03T01:57:22.965Z,90.40
2019-05-03T01:58:22.949Z,90.40
2019-05-03T01:59:22.936Z,90.81
2019-05-03T02:00:23.528Z,90.71
2019-05-03T02:01:22.916Z,88.96
2019-05-03T02:02:23.110Z,90.20
2019-05-03T02:03:22.935Z,90.20
2019-05-03T02:04:22.884Z,90.36
2019-05-03T02:05:22.912Z,91.28
2019-05-03T02:06:22.864Z,91.42
2019-05-03T02:07:22.863Z,90.87
2019-05-03T02:08:22.845Z,90.46
2019-05-03T02:09:22.833Z,90.26
2019-05-03T02:10:22.856Z,91.08
2019-05-03T02:11:22.819Z,90.56
2019-05-03T02:12:22.802Z,90.77
2019-05-03T02:13:23.000Z,90.46
2019-05-03T02:14:22.779Z,90.26
2019-05-03T02:15:30.371Z,90.16
2019-05-03T02:16:22.766Z,90.56
2019-05-03T02:17:31.888Z,90.97
2019-05-03T02:18:22.741Z,91.38
2019-05-03T02:19:22.740Z,90.30
2019-05-03T02:20:22.744Z,90.40
2019-05-03T02:21:22.745Z,91.49
2019-05-03T02:22:22.722Z,91.42
2019-05-03T02:23:22.688Z,90.30
2019-05-03T02:24:22.729Z,90.91
2019-05-03T02:25:22.666Z,90.30
2019-05-03T02:26:22.675Z,89.89
2019-05-03T02:27:22.647Z,90.46
2019-05-03T02:28:22.645Z,90.30
2019-05-03T02:29:22.666Z,90.56
2019-05-03T02:30:24.926Z,90.26
2019-05-03T02:31:23.147Z,88.10
2019-05-03T02:32:23.343Z,89.23
2019-05-03T02:33:23.319Z,88.92
2019-05-03T02:34:23.904Z,89.13
2019-05-03T02:35:22.796Z,89.23
2019-05-03T02:36:23.153Z,89.64
2019-05-03T02:37:22.585Z,89.64
2019-05-03T02:38:23.400Z,89.23
2019-05-03T02:39:23.045Z,89.84
2019-05-03T02:40:24.540Z,89.17
2019-05-03T02:41:22.827Z,89.27
2019-05-03T02:42:22.511Z,89.07
2019-05-03T02:43:25.622Z,89.78
2019-05-03T02:44:22.485Z,89.69
2019-05-03T02:45:22.465Z,89.69
2019-05-03T02:46:25.130Z,89.69
2019-05-03T02:47:22.459Z,89.48
2019-05-03T02:48:25.354Z,88.56
2019-05-03T02:49:22.411Z,89.37
2019-05-03T02:50:22.435Z,88.66
2019-05-03T02:51:22.445Z,88.66
2019-05-03T02:52:22.380Z,89.27
2019-05-03T02:53:22.428Z,89.07
2019-05-03T02:54:22.359Z,88.66
2019-05-03T02:55:22.350Z,89.17
2019-05-03T02:56:23.357Z,89.37
2019-05-03T02:57:22.341Z,88.76
2019-05-03T02:58:25.144Z,89.17
2019-05-03T02:59:22.304Z,89.48
2019-05-03T03:00:25.305Z,89.37
2019-05-03T03:01:22.284Z,89.58
2019-05-03T03:02:22.313Z,89.89
2019-05-03T03:03:22.264Z,89.78
2019-05-03T03:04:22.256Z,89.27
2019-05-03T03:05:22.251Z,89.69
2019-05-03T03:06:22.239Z,89.78
2019-05-03T03:07:22.274Z,89.69
2019-05-03T03:08:22.213Z,89.99
2019-05-03T03:09:25.232Z,89.37
2019-05-03T03:10:22.194Z,89.48
2019-05-03T03:11:22.180Z,88.24
2019-05-03T03:12:22.205Z,88.90
2019-05-03T03:13:22.176Z,89.07
2019-05-03T03:14:22.161Z,87.94
2019-05-03T03:15:22.137Z,88.49
2019-05-03T03:16:22.130Z,88.14
2019-05-03T03:17:22.126Z,88.45
2019-05-03T03:18:22.138Z,88.49
2019-05-03T03:19:22.093Z,88.35
2019-05-03T03:20:22.089Z,88.76
2019-05-03T03:21:22.083Z,88.66
2019-05-03T03:22:22.098Z,88.66
2019-05-03T03:23:22.072Z,89.27
2019-05-03T03:24:22.079Z,88.49
2019-05-03T03:25:22.058Z,88.29
2019-05-03T03:26:34.473Z,87.94
2019-05-03T03:27:25.546Z,87.98
2019-05-03T03:28:22.019Z,86.54
2019-05-03T03:29:21.998Z,87.88
2019-05-03T03:30:21.996Z,88.45
2019-05-03T03:31:21.965Z,88.70
2019-05-03T03:32:21.969Z,87.67
2019-05-03T03:33:22.002Z,87.67
2019-05-03T03:34:21.941Z,88.08
2019-05-03T03:35:22.571Z,87.05
2019-05-03T03:36:45.986Z,87.37
2019-05-03T03:37:25.818Z,87.26
2019-05-03T03:38:22.004Z,87.26
2019-05-03T03:39:21.891Z,87.26
2019-05-03T03:40:21.873Z,87.05
2019-05-03T03:41:21.873Z,87.30
2019-05-03T03:42:21.861Z,87.16
2019-05-03T03:43:21.888Z,87.10
2019-05-03T03:44:21.859Z,86.85
2019-05-03T03:45:21.819Z,86.95
2019-05-03T03:46:21.817Z,87.61
2019-05-03T03:47:21.798Z,86.65
2019-05-03T03:48:21.796Z,86.89
2019-05-03T03:49:21.804Z,86.07
2019-05-03T03:50:21.788Z,86.89
2019-05-03T03:51:21.750Z,87.20
2019-05-03T03:52:21.751Z,85.86
2019-05-03T03:53:21.741Z,86.58
2019-05-03T03:54:21.749Z,86.58
2019-05-03T03:55:21.748Z,86.99
2019-05-03T03:56:21.699Z,86.27
2019-05-03T03:57:21.687Z,86.89
2019-05-03T03:58:23.103Z,86.68
2019-05-03T03:59:21.699Z,86.58
2019-05-03T04:00:21.699Z,86.89
2019-05-03T04:01:21.670Z,87.24
2019-05-03T04:02:21.639Z,86.93
2019-05-03T04:03:21.623Z,87.55
2019-05-03T04:04:21.639Z,87.45
2019-05-03T04:05:21.608Z,88.06
2019-05-03T04:06:21.617Z,87.96
2019-05-03T04:07:21.581Z,87.90
2019-05-03T04:08:21.574Z,87.96
2019-05-03T04:09:21.559Z,88.10
2019-05-03T04:10:21.581Z,87.55
2019-05-03T04:11:21.551Z,87.75
2019-05-03T04:12:21.600Z,88.10
2019-05-03T04:13:21.522Z,87.69
2019-05-03T04:14:21.543Z,88.10
2019-05-03T04:15:21.542Z,87.38
2019-05-03T04:16:21.511Z,87.79
2019-05-03T04:17:21.487Z,87.90
2019-05-03T04:18:21.486Z,87.90
2019-05-03T04:19:21.459Z,87.90
2019-05-03T04:20:21.464Z,87.49
2019-05-03T04:21:21.436Z,88.00
2019-05-03T04:22:21.460Z,88.20
2019-05-03T04:23:21.416Z,88.10
2019-05-03T04:24:21.405Z,88.41
2019-05-03T04:25:21.437Z,88.96
2019-05-03T04:26:21.382Z,89.38
2019-05-03T04:27:24.432Z,89.01
2019-05-03T04:28:22.358Z,89.62
2019-05-03T04:29:21.349Z,88.76
2019-05-03T04:30:21.345Z,88.70
2019-05-03T04:31:21.389Z,89.28
2019-05-03T04:32:24.859Z,88.45
2019-05-03T04:33:22.308Z,88.96
2019-05-03T04:34:21.323Z,89.52
2019-05-03T04:35:21.288Z,89.48
2019-05-03T04:36:21.298Z,89.17
2019-05-03T04:37:21.278Z,90.00
2019-05-03T04:38:21.260Z,89.69
2019-05-03T04:39:21.269Z,89.17
2019-05-03T04:40:21.234Z,89.17
2019-05-03T04:41:21.251Z,89.07
2019-05-03T04:42:21.213Z,89.48
2019-05-03T04:43:21.239Z,89.79
2019-05-03T04:44:21.193Z,89.79
2019-05-03T04:45:21.197Z,89.38
2019-05-03T04:46:21.166Z,89.44
2019-05-03T04:47:21.193Z,89.95
2019-05-03T04:48:21.157Z,90.57
2019-05-03T04:49:21.142Z,90.36
2019-05-03T04:50:21.133Z,90.06
2019-05-03T04:51:21.114Z,89.85
2019-05-03T04:52:21.155Z,90.67
2019-05-03T04:53:21.107Z,89.44
2019-05-03T04:54:21.125Z,89.34
2019-05-03T04:55:21.132Z,88.51
2019-05-03T04:56:21.074Z,88.89
2019-05-03T04:57:34.791Z,89.34
2019-05-03T04:58:22.052Z,89.75
2019-05-03T04:59:21.044Z,89.44
2019-05-03T05:00:21.020Z,89.85
2019-05-03T05:01:21.007Z,89.34
2019-05-03T05:02:21.018Z,89.54
2019-05-03T05:03:21.017Z,89.60
2019-05-03T05:04:20.987Z,90.06
2019-05-03T05:05:20.968Z,89.50
2019-05-03T05:06:20.990Z,89.64
2019-05-03T05:07:20.959Z,89.50
2019-05-03T05:08:20.957Z,89.81
2019-05-03T05:09:20.932Z,88.37
2019-05-03T05:10:20.914Z,89.50
2019-05-03T05:11:20.905Z,89.19
2019-05-03T05:12:20.905Z,89.29
2019-05-03T05:13:20.966Z,89.40
2019-05-03T05:14:20.872Z,88.78
2019-05-03T05:15:20.870Z,89.50
2019-05-03T05:16:20.851Z,89.50
2019-05-03T05:17:20.841Z,89.60
2019-05-03T05:18:20.867Z,88.98
2019-05-03T05:19:20.825Z,88.78
2019-05-03T05:20:20.812Z,89.36
2019-05-03T05:21:20.802Z,89.46
2019-05-03T05:22:20.792Z,89.04
2019-05-03T05:23:20.830Z,88.27
2019-05-03T05:24:20.835Z,89.36
2019-05-03T05:25:20.801Z,88.95
2019-05-03T05:26:20.748Z,89.36
2019-05-03T05:27:20.756Z,88.95
2019-05-03T05:28:20.746Z,87.13
2019-05-03T05:29:20.727Z,88.02
2019-05-03T05:30:20.703Z,86.58
2019-05-03T05:31:20.695Z,88.53
2019-05-03T05:32:20.691Z,88.74
2019-05-03T05:33:20.680Z,88.53
2019-05-03T05:34:20.683Z,88.02
2019-05-03T05:35:20.651Z,87.30
2019-05-03T05:36:20.639Z,87.92
2019-05-03T05:37:20.629Z,88.27
2019-05-03T05:38:20.624Z,88.64
2019-05-03T05:39:20.630Z,88.17
2019-05-03T05:40:20.599Z,87.92
2019-05-03T05:41:20.594Z,86.99
2019-05-03T05:42:20.584Z,87.82
2019-05-03T05:43:20.601Z,87.40
2019-05-03T05:44:20.572Z,87.82
2019-05-03T05:45:20.541Z,88.02
2019-05-03T05:46:20.539Z,87.51
2019-05-03T05:47:20.522Z,86.48
2019-05-03T05:48:20.511Z,87.30
2019-05-03T05:49:20.524Z,87.40
2019-05-03T05:50:20.492Z,87.57
2019-05-03T05:51:20.481Z,88.70
2019-05-03T05:52:20.482Z,88.12
2019-05-03T05:53:20.457Z,87.10
2019-05-03T05:54:20.491Z,88.02
2019-05-03T05:55:20.454Z,86.85
2019-05-03T05:56:20.425Z,85.72
2019-05-03T05:57:20.416Z,85.82
2019-05-03T05:58:20.404Z,86.54
2019-05-03T05:59:20.453Z,85.52
2019-05-03T06:00:20.396Z,85.41
2019-05-03T06:01:20.376Z,86.54
2019-05-03T06:02:20.372Z,86.50
2019-05-03T06:03:20.354Z,84.90
2019-05-03T06:04:20.366Z,85.31
2019-05-03T06:05:20.333Z,86.54
2019-05-03T06:06:20.329Z,85.82
2019-05-03T06:07:20.315Z,85.17
2019-05-03T06:08:20.317Z,85.27
2019-05-03T06:09:20.318Z,86.30
2019-05-03T06:10:20.294Z,85.89
2019-05-03T06:11:20.271Z,85.89
2019-05-03T06:12:20.262Z,84.96
2019-05-03T06:13:20.248Z,84.86
2019-05-03T06:14:20.265Z,85.17
2019-05-03T06:15:20.225Z,85.13
2019-05-03T06:16:20.218Z,84.92
2019-05-03T06:17:20.229Z,84.92
2019-05-03T06:18:20.207Z,84.61
2019-05-03T06:19:20.184Z,83.90
2019-05-03T06:20:20.201Z,83.69
2019-05-03T06:21:20.165Z,84.10
2019-05-03T06:22:20.155Z,84.10
2019-05-03T06:23:20.149Z,84.10
2019-05-03T06:24:20.129Z,82.36
2019-05-03T06:25:20.145Z,82.26
2019-05-03T06:26:20.111Z,80.62
2019-05-03T06:27:20.099Z,82.15
2019-05-03T06:28:21.021Z,81.23
2019-05-03T06:29:20.075Z,80.62
2019-05-03T06:30:20.088Z,79.18
2019-05-03T06:31:22.709Z,80.10
2019-05-03T06:32:20.047Z,80.41
2019-05-03T06:33:20.035Z,80.41
2019-05-03T06:34:20.042Z,80.51
2019-05-03T06:35:20.063Z,81.34
2019-05-03T06:36:20.002Z,81.13
2019-05-03T06:37:19.995Z,82.05
2019-05-03T06:38:19.980Z,81.71
2019-05-03T06:39:19.975Z,80.78
2019-05-03T06:40:19.983Z,80.17
2019-05-03T06:41:19.969Z,79.66
2019-05-03T06:42:22.830Z,79.66
2019-05-03T06:43:19.929Z,78.02
2019-05-03T06:44:26.047Z,77.61
2019-05-03T06:45:20.917Z,79.14
2019-05-03T06:46:23.594Z,79.14
2019-05-03T06:47:20.889Z,78.02
2019-05-03T06:48:22.402Z,78.42
2019-05-03T06:49:20.868Z,77.71
2019-05-03T06:50:27.554Z,78.16
2019-05-03T06:51:20.865Z,77.40
2019-05-03T06:52:24.802Z,77.71
2019-05-03T06:53:20.820Z,77.61
2019-05-03T06:54:20.616Z,77.09
2019-05-03T06:55:20.825Z,77.29
2019-05-03T06:56:24.978Z,76.99
2019-05-03T06:57:20.788Z,76.44
2019-05-03T06:58:30.345Z,76.95
2019-05-03T06:59:20.769Z,76.95
2019-05-03T07:00:19.750Z,76.75
2019-05-03T07:01:19.737Z,76.95
2019-05-03T07:02:19.746Z,76.24
2019-05-03T07:03:19.728Z,75.28
2019-05-03T07:04:19.704Z,74.87
2019-05-03T07:05:19.698Z,75.48
2019-05-03T07:06:32.965Z,75.07
2019-05-03T07:07:20.695Z,75.07
2019-05-03T07:08:19.685Z,75.28
2019-05-03T07:09:19.661Z,74.73
2019-05-03T07:10:19.644Z,74.73
2019-05-03T07:11:19.633Z,72.82
2019-05-03T07:12:19.650Z,73.33
2019-05-03T07:13:27.186Z,72.72
2019-05-03T07:14:19.598Z,72.61
2019-05-03T07:15:27.135Z,75.07
2019-05-03T07:16:19.596Z,75.48
2019-05-03T07:17:19.566Z,76.20
2019-05-03T07:18:19.580Z,74.32
2019-05-03T07:19:19.547Z,73.61
2019-05-03T07:20:19.539Z,74.43
2019-05-03T07:21:19.525Z,74.02
2019-05-03T07:22:19.525Z,72.04
2019-05-03T07:23:19.523Z,72.45
2019-05-03T07:24:19.493Z,72.96
2019-05-03T07:25:19.482Z,72.52
2019-05-03T07:26:19.472Z,72.41
2019-05-03T07:27:19.474Z,70.67
2019-05-03T07:28:19.468Z,71.36
2019-05-03T07:29:19.441Z,70.43
2019-05-03T07:30:19.432Z,70.43
2019-05-03T07:31:19.419Z,69.31
2019-05-03T07:32:19.410Z,69.31
2019-05-03T07:33:19.422Z,67.98
2019-05-03T07:34:19.387Z,66.45
2019-05-03T07:35:19.386Z,65.12
2019-05-03T07:36:19.368Z,66.55
2019-05-03T07:37:19.363Z,67.37
2019-05-03T07:38:19.371Z,67.47
2019-05-03T07:39:19.369Z,68.08
2019-05-03T07:40:19.329Z,68.08
2019-05-03T07:41:19.319Z,69.21
2019-05-03T07:42:19.351Z,69.72
2019-05-03T07:43:19.370Z,70.84
2019-05-03T07:44:19.287Z,70.95
2019-05-03T07:45:19.280Z,71.25
2019-05-03T07:46:19.267Z,69.82
2019-05-03T07:47:19.284Z,67.68
2019-05-03T07:48:19.271Z,68.08
2019-05-03T07:49:19.257Z,66.28
2019-05-03T07:50:19.226Z,67.30
2019-05-03T07:51:19.217Z,67.60
2019-05-03T07:52:19.257Z,67.71
2019-05-03T07:53:19.216Z,67.71
2019-05-03T07:54:19.176Z,67.81
2019-05-03T07:55:19.166Z,66.17
2019-05-03T07:56:19.161Z,68.12
2019-05-03T07:57:19.158Z,64.23
2019-05-03T07:58:19.135Z,65.77
2019-05-03T07:59:19.142Z,65.77
2019-05-03T08:00:19.110Z,68.32
2019-05-03T08:01:19.105Z,68.39
2019-05-03T08:02:19.093Z,67.78
2019-05-03T08:03:19.108Z,66.25
2019-05-03T08:04:19.110Z,66.86
2019-05-03T08:05:19.060Z,66.35
2019-05-03T08:06:19.047Z,66.42
2019-05-03T08:07:22.388Z,64.99
2019-05-03T08:08:19.030Z,65.91
2019-05-03T08:09:19.035Z,65.80
2019-05-03T08:10:19.022Z,66.52
2019-05-03T08:11:19.001Z,66.21
2019-05-03T08:12:18.988Z,65.80
2019-05-03T08:13:18.973Z,66.31
2019-05-03T08:14:18.984Z,65.70
2019-05-03T08:15:18.952Z,66.31
2019-05-03T08:16:18.940Z,66.11
2019-05-03T08:17:18.930Z,66.35
2019-05-03T08:18:18.929Z,65.60
2019-05-03T08:19:18.929Z,67.44
2019-05-03T08:20:18.897Z,65.50
2019-05-03T08:21:18.892Z,65.30
2019-05-03T08:22:18.880Z,65.94
2019-05-03T08:23:27.463Z,65.53
2019-05-03T08:24:19.881Z,66.35
2019-05-03T08:25:18.852Z,64.99
2019-05-03T08:26:18.837Z,67.85
2019-05-03T08:27:18.829Z,66.01
2019-05-03T08:28:18.815Z,67.27
2019-05-03T08:29:19.660Z,65.80
2019-05-03T08:30:18.798Z,65.80
2019-05-03T08:31:18.783Z,64.17
2019-05-03T08:32:18.775Z,63.96
2019-05-03T08:33:18.758Z,64.37
2019-05-03T08:34:18.776Z,64.68
2019-05-03T08:35:18.757Z,64.04
2019-05-03T08:36:18.733Z,65.40
2019-05-03T08:37:18.717Z,66.08
2019-05-03T08:38:18.706Z,66.28
2019-05-03T08:39:18.714Z,66.39
2019-05-03T08:40:18.688Z,64.22
2019-05-03T08:41:18.688Z,63.90
2019-05-03T08:42:18.667Z,66.49
2019-05-03T08:43:18.684Z,63.19
2019-05-03T08:44:18.684Z,63.40
2019-05-03T08:45:18.643Z,62.48
2019-05-03T08:46:18.627Z,63.29
2019-05-03T08:47:18.617Z,63.90
2019-05-03T08:48:18.599Z,62.78
2019-05-03T08:49:18.596Z,63.49
2019-05-03T08:50:21.348Z,63.60
2019-05-03T08:51:18.590Z,63.49
2019-05-03T08:52:18.555Z,62.58
2019-05-03T08:53:18.551Z,61.53
2019-05-03T08:54:18.536Z,61.15
2019-05-03T08:55:18.548Z,60.82
2019-05-03T08:56:18.522Z,60.82
2019-05-03T08:57:18.556Z,60.53
2019-05-03T08:58:18.497Z,60.94
2019-05-03T08:59:28.788Z,62.48
2019-05-03T09:01:28.232Z,61.63
2019-05-03T09:02:28.202Z,61.25
2019-05-03T09:03:28.192Z,64.18
2019-05-03T09:04:37.205Z,61.63
2019-05-03T09:05:29.194Z,64.18
2019-05-03T09:06:28.159Z,62.45
2019-05-03T09:07:28.155Z,62.35
2019-05-03T09:08:28.137Z,61.22
2019-05-03T09:09:28.132Z,63.54
2019-05-03T09:10:28.135Z,63.95
2019-05-03T09:11:33.685Z,66.27
2019-05-03T09:12:29.095Z,65.55
2019-05-03T09:13:28.086Z,63.00
2019-05-03T09:14:38.799Z,62.90
2019-05-03T09:15:29.083Z,61.57
2019-05-03T09:16:28.052Z,61.07
2019-05-03T09:17:28.041Z,61.47
2019-05-03T09:18:28.034Z,60.69
2019-05-03T09:19:28.028Z,61.09
2019-05-03T09:20:28.033Z,59.94
2019-05-03T09:21:27.998Z,61.30
2019-05-03T09:22:28.002Z,60.66
2019-05-03T09:23:27.994Z,60.76
2019-05-03T09:24:27.967Z,61.27
2019-05-03T09:25:27.981Z,60.55
2019-05-03T09:26:29.481Z,59.43
2019-05-03T09:27:27.936Z,60.12
2019-05-03T09:28:29.264Z,63.28
2019-05-03T09:29:40.284Z,63.45
2019-05-03T09:30:28.928Z,61.31
2019-05-03T09:31:27.895Z,57.44
2019-05-03T09:32:27.883Z,58.15
2019-05-03T09:33:27.875Z,57.44
2019-05-03T09:34:27.861Z,57.54
2019-05-03T09:35:32.779Z,59.58
2019-05-03T09:36:28.860Z,59.30
2019-05-03T09:37:27.833Z,60.83
2019-05-03T09:38:27.819Z,58.08
2019-05-03T09:39:27.810Z,59.41
2019-05-03T09:40:27.801Z,59.74
2019-05-03T09:41:27.842Z,57.39
2019-05-03T09:42:27.781Z,59.43
2019-05-03T09:43:27.786Z,62.16
2019-05-03T09:44:27.775Z,61.21
2019-05-03T09:45:27.746Z,58.26
2019-05-03T09:46:27.760Z,62.71
2019-05-03T09:47:27.726Z,62.81
2019-05-03T09:48:27.713Z,60.37
2019-05-03T09:49:27.715Z,57.42
2019-05-03T09:50:27.717Z,59.05
2019-05-03T09:51:27.683Z,55.18
2019-05-03T09:52:27.696Z,56.12
2019-05-03T09:53:27.663Z,57.54
2019-05-03T09:54:27.650Z,60.30
2019-05-03T09:55:27.642Z,61.38
2019-05-03T09:56:27.642Z,61.49
2019-05-03T09:57:27.643Z,57.18
2019-05-03T09:58:27.610Z,58.33
2019-05-03T09:59:27.603Z,57.31
2019-05-03T10:00:27.589Z,58.94
2019-05-03T10:01:27.579Z,59.32
2019-05-03T10:02:27.590Z,59.42
2019-05-03T10:03:27.556Z,59.32
2019-05-03T10:04:27.553Z,61.46
2019-05-03T10:05:27.539Z,56.55
2019-05-03T10:06:27.539Z,55.63
2019-05-03T10:07:27.518Z,55.94
2019-05-03T10:08:27.525Z,57.16
2019-05-03T10:09:27.514Z,55.53
2019-05-03T10:10:27.493Z,56.55
2019-05-03T10:11:27.470Z,57.26
2019-05-03T10:12:27.463Z,55.02
2019-05-03T10:13:27.505Z,53.83
2019-05-03T10:14:27.439Z,53.93
2019-05-03T10:15:27.434Z,54.46
2019-05-03T10:16:27.418Z,53.75
2019-05-03T10:17:27.407Z,54.97
2019-05-03T10:18:27.419Z,57.69
2019-05-03T10:19:37.148Z,59.01
2019-05-03T10:20:28.377Z,56.68
2019-05-03T10:21:27.365Z,53.39
2019-05-03T10:22:27.356Z,52.10
2019-05-03T10:23:27.367Z,54.00
2019-05-03T10:24:27.336Z,55.94
2019-05-03T10:25:27.331Z,54.31
2019-05-03T10:26:27.312Z,53.19
2019-05-03T10:27:27.304Z,49.53
2019-05-03T10:28:27.331Z,49.73
2019-05-03T10:29:27.282Z,53.88
2019-05-03T10:30:27.274Z,55.51
2019-05-03T10:31:27.262Z,57.31
2019-05-03T10:32:27.251Z,53.65
2019-05-03T10:33:27.241Z,49.28
2019-05-03T10:34:27.251Z,53.14
2019-05-03T10:35:27.228Z,49.79
2019-05-03T10:36:27.207Z,49.18
2019-05-03T10:37:27.197Z,51.31
2019-05-03T10:38:27.185Z,52.03
2019-05-03T10:39:27.216Z,52.56
2019-05-03T10:40:27.173Z,54.16
2019-05-03T10:41:27.160Z,52.12
2019-05-03T10:42:27.141Z,51.42
2019-05-03T10:43:27.134Z,54.97
2019-05-03T10:44:27.140Z,52.10
2019-05-03T10:45:28.116Z,54.03
2019-05-03T10:46:27.109Z,52.20
2019-05-03T10:47:27.091Z,49.97
2019-05-03T10:48:27.081Z,51.59
2019-05-03T10:49:27.089Z,50.17
2019-05-03T10:50:27.060Z,51.31
2019-05-03T10:51:27.083Z,47.66
2019-05-03T10:52:27.045Z,51.84
2019-05-03T10:53:27.025Z,50.90
2019-05-03T10:54:27.032Z,52.15
2019-05-03T10:55:27.003Z,51.54
2019-05-03T10:56:27.004Z,51.64
2019-05-03T10:57:26.984Z,53.06
2019-05-03T10:58:26.974Z,50.73
2019-05-03T10:59:26.980Z,50.01
2019-05-03T11:00:50.314Z,51.23
2019-05-03T11:01:27.940Z,49.91
2019-05-03T11:02:26.930Z,51.67
2019-05-03T11:03:26.919Z,53.57
2019-05-03T11:04:26.960Z,52.96
2019-05-03T11:05:26.907Z,50.32
2019-05-03T11:06:26.894Z,53.57
2019-05-03T11:07:26.879Z,54.77
2019-05-03T11:08:26.867Z,50.68
2019-05-03T11:09:26.860Z,50.88
2019-05-03T11:10:26.865Z,51.87
2019-05-03T11:11:26.835Z,47.83
2019-05-03T11:12:27.181Z,49.87
2019-05-03T11:13:26.834Z,46.01
2019-05-03T11:14:26.803Z,46.11
2019-05-03T11:15:26.817Z,48.24
2019-05-03T11:16:26.780Z,46.64
2019-05-03T11:17:26.770Z,47.96
2019-05-03T11:18:26.759Z,49.16
2019-05-03T11:19:26.748Z,48.34
2019-05-03T11:20:29.241Z,49.44
2019-05-03T11:21:30.934Z,48.93
2019-05-03T11:22:26.717Z,49.87
2019-05-03T11:23:26.713Z,49.76
2019-05-03T11:24:27.503Z,50.35
2019-05-03T11:25:26.704Z,48.95
2019-05-03T11:26:26.674Z,50.68
2019-05-03T11:27:26.666Z,48.85
2019-05-03T11:28:26.673Z,50.35
2019-05-03T11:29:26.643Z,48.93
2019-05-03T11:30:26.651Z,49.13
2019-05-03T11:31:26.623Z,48.02
2019-05-03T11:32:26.611Z,47.81
2019-05-03T11:33:26.606Z,47.81
2019-05-03T11:34:26.589Z,49.03
2019-05-03T11:35:26.598Z,48.42
2019-05-03T11:36:26.568Z,51.77
2019-05-03T11:37:26.566Z,50.35
2019-05-03T11:38:26.554Z,48.80
2019-05-03T11:39:26.537Z,50.02
2019-05-03T11:40:26.546Z,46.17
2019-05-03T11:41:32.045Z,47.89
2019-05-03T11:42:27.503Z,45.68
2019-05-03T11:43:26.499Z,50.35
2019-05-03T11:44:26.485Z,49.13
2019-05-03T11:45:26.497Z,47.20
2019-05-03T11:46:26.462Z,45.28
2019-05-03T11:47:27.718Z,50.56
2019-05-03T11:48:26.446Z,48.42
2019-05-03T11:49:26.453Z,49.23
2019-05-03T11:50:26.449Z,49.64
2019-05-03T11:51:26.408Z,48.02
2019-05-03T11:52:26.411Z,47.83
2019-05-03T11:53:26.389Z,49.33
2019-05-03T11:54:26.401Z,50.17
2019-05-03T11:55:26.961Z,53.12
2019-05-03T11:56:26.402Z,47.61
2019-05-03T11:57:26.656Z,53.58
2019-05-03T11:58:27.336Z,49.92
2019-05-03T11:59:26.572Z,47.99
2019-05-03T12:00:26.806Z,51.82
2019-05-03T12:01:26.323Z,47.87
2019-05-03T12:02:26.300Z,47.67
2019-05-03T12:03:26.287Z,50.81
2019-05-03T12:04:26.294Z,54.28
2019-05-03T12:05:26.261Z,46.57
2019-05-03T12:06:26.272Z,46.17
2019-05-03T12:07:38.604Z,44.85
2019-05-03T12:08:27.229Z,47.81
2019-05-03T12:09:26.218Z,49.54
2019-05-03T12:10:46.245Z,46.19
2019-05-03T12:11:27.214Z,47.02
2019-05-03T12:12:26.220Z,48.34
2019-05-03T12:13:26.175Z,46.21
2019-05-03T12:14:26.164Z,54.11
2019-05-03T12:15:26.159Z,49.23
2019-05-03T12:17:06.880Z,47.51
2019-05-03T12:17:29.542Z,47.81
2019-05-03T12:18:26.860Z,46.57
2019-05-03T12:19:31.167Z,50.60
2019-05-03T12:20:28.994Z,52.51
2019-05-03T12:21:27.673Z,47.26
2019-05-03T12:22:26.843Z,49.87
2019-05-03T12:23:26.697Z,45.79
2019-05-03T12:24:26.965Z,47.72
2019-05-03T12:25:26.854Z,48.74
2019-05-03T12:26:40.440Z,50.03
2019-05-03T12:27:27.053Z,43.95
2019-05-03T12:28:26.018Z,42.66
2019-05-03T12:29:26.009Z,47.82
2019-05-03T12:30:27.745Z,46.10
2019-05-03T12:31:36.625Z,45.09
2019-05-03T12:32:26.994Z,44.68
2019-05-03T12:33:26.249Z,45.11
2019-05-03T12:34:25.953Z,44.60
2019-05-03T12:35:25.944Z,45.82
2019-05-03T12:36:25.929Z,47.14
2019-05-03T12:37:25.939Z,44.40
2019-05-03T12:38:25.910Z,45.51
2019-05-03T12:39:30.034Z,46.45
2019-05-03T12:40:25.888Z,47.85
2019-05-03T12:41:25.881Z,48.46
2019-05-03T12:42:25.892Z,47.64
2019-05-03T12:43:25.864Z,45.92
2019-05-03T12:44:25.854Z,44.81
2019-05-03T12:45:25.838Z,46.33
2019-05-03T12:46:26.305Z,43.38
2019-05-03T12:47:25.834Z,45.01
2019-05-03T12:48:25.801Z,42.17
2019-05-03T12:49:25.793Z,42.88
2019-05-03T12:50:25.781Z,43.61
2019-05-03T12:51:25.961Z,41.28
2019-05-03T12:52:26.953Z,45.66
2019-05-03T12:53:25.775Z,47.89